createdAt,value
2022-12-04T00:01:29.283Z,90.23
2022-12-04T00:03:58.554Z,89.63
2022-12-04T00:06:27.327Z,85.30
2022-12-04T00:08:56.131Z,84.50
2022-12-04T00:11:28.039Z,71.07
2022-12-04T00:14:01.420Z,99.30
2022-12-04T00:16:33.620Z,124.40
2022-12-04T00:19:02.173Z,82.47
2022-12-04T00:21:30.726Z,98.83
2022-12-04T00:23:59.150Z,92.47
2022-12-04T00:26:31.020Z,84.17
2022-12-04T00:28:59.757Z,71.67
2022-12-04T00:31:29.386Z,76.37
2022-12-04T00:33:58.524Z,93.03
2022-12-04T00:36:28.044Z,76.80
2022-12-04T00:38:56.908Z,77.27
2022-12-04T00:41:26.087Z,82.80
2022-12-04T00:43:57.136Z,82.07
2022-12-04T00:46:25.613Z,75.10
2022-12-04T00:48:54.281Z,96.50
2022-12-04T00:51:23.894Z,87.10
2022-12-04T00:53:52.813Z,81.90
2022-12-04T00:56:22.250Z,93.50
2022-12-04T00:58:53.147Z,72.40
2022-12-04T01:01:23.360Z,82.10
2022-12-04T01:03:51.947Z,71.20
2022-12-04T01:06:21.570Z,74.43
2022-12-04T01:08:50.594Z,70.57
2022-12-04T01:11:19.341Z,56.57
2022-12-04T01:13:47.891Z,74.73
2022-12-04T01:16:20.342Z,70.37
2022-12-04T01:18:50.226Z,79.53
2022-12-04T01:21:18.714Z,93.50
2022-12-04T01:23:50.054Z,75.83
2022-12-04T01:26:18.533Z,70.67
2022-12-04T01:28:46.944Z,78.90
2022-12-04T01:31:16.831Z,99.10
2022-12-04T01:33:47.976Z,81.90
2022-12-04T01:36:18.520Z,78.00
2022-12-04T01:38:47.015Z,64.83
2022-12-04T01:41:17.242Z,60.23
2022-12-04T01:43:45.835Z,86.10
2022-12-04T01:46:14.400Z,78.77
2022-12-04T01:48:44.890Z,106.70
2022-12-04T01:51:16.580Z,74.53
2022-12-04T01:53:57.568Z,70.73
2022-12-04T01:56:28.440Z,85.33
2022-12-04T01:58:58.844Z,65.43
2022-12-04T02:01:29.924Z,78.07
2022-12-04T02:03:58.694Z,99.07
2022-12-04T02:06:27.112Z,72.27
2022-12-04T02:08:56.965Z,73.80
2022-12-04T02:11:28.961Z,82.90
2022-12-04T02:14:03.538Z,102.97
2022-12-04T02:16:37.119Z,84.70
2022-12-04T02:19:09.723Z,86.80
2022-12-04T02:21:39.099Z,130.33
2022-12-04T02:24:23.311Z,83.53
2022-12-04T02:26:54.216Z,105.87
2022-12-04T02:29:29.487Z,83.83
2022-12-04T02:32:00.113Z,81.47
2022-12-04T02:34:29.200Z,106.17
2022-12-04T02:36:59.541Z,93.33
2022-12-04T02:39:31.080Z,72.00
2022-12-04T02:42:04.503Z,83.23
2022-12-04T02:44:36.787Z,81.83
2022-12-04T02:47:07.160Z,72.53
2022-12-04T02:49:39.767Z,109.00
2022-12-04T02:52:09.859Z,84.53
2022-12-04T02:54:40.264Z,108.37
2022-12-04T02:57:11.862Z,91.90
2022-12-04T02:59:43.619Z,107.20
2022-12-04T03:02:14.133Z,104.90
2022-12-04T03:04:43.275Z,98.07
2022-12-04T03:07:13.437Z,84.20
2022-12-04T03:09:44.793Z,74.40
2022-12-04T03:12:15.421Z,95.53
2022-12-04T03:14:48.831Z,100.83
2022-12-04T03:17:21.544Z,128.97
2022-12-04T03:19:52.411Z,102.13
2022-12-04T03:22:21.905Z,98.23
2022-12-04T03:24:52.304Z,92.70
2022-12-04T03:27:25.459Z,99.93
2022-12-04T03:29:57.159Z,78.83
2022-12-04T03:32:28.328Z,77.90
2022-12-04T03:34:58.786Z,85.67
2022-12-04T03:37:32.063Z,62.47
2022-12-04T03:40:02.217Z,76.40
2022-12-04T03:42:33.534Z,68.23
2022-12-04T03:45:05.672Z,102.57
2022-12-04T03:47:36.149Z,83.20
2022-12-04T03:50:06.923Z,78.40
2022-12-04T03:52:41.279Z,62.63
2022-12-04T03:55:13.103Z,94.10
2022-12-04T03:57:46.340Z,71.67
2022-12-04T04:00:18.388Z,79.13
2022-12-04T04:02:48.623Z,64.60
2022-12-04T04:05:17.605Z,60.03
2022-12-04T04:07:48.167Z,55.17
2022-12-04T04:10:18.224Z,59.97
2022-12-04T04:13:10.175Z,59.87
2022-12-04T04:16:00.388Z,58.27
2022-12-04T04:18:47.289Z,70.60
2022-12-04T04:21:36.052Z,75.80
2022-12-04T04:24:17.678Z,75.40
2022-12-04T04:26:47.215Z,74.90
2022-12-04T04:29:15.818Z,60.93
2022-12-04T04:31:48.597Z,75.97
2022-12-04T04:34:20.859Z,77.13
2022-12-04T04:36:53.937Z,95.57
2022-12-04T04:39:26.884Z,75.13
2022-12-04T04:41:58.288Z,72.77
2022-12-04T04:44:29.087Z,69.03
2022-12-04T04:47:02.064Z,91.97
2022-12-04T04:49:31.543Z,102.50
2022-12-04T04:52:00.711Z,58.33
2022-12-04T04:54:30.229Z,79.53
2022-12-04T04:56:58.723Z,91.57
2022-12-04T04:59:27.218Z,103.70
2022-12-04T05:01:55.641Z,66.23
2022-12-04T05:04:25.456Z,66.77
2022-12-04T05:06:53.873Z,60.23
2022-12-04T05:09:22.326Z,60.67
2022-12-04T05:11:50.747Z,67.13
2022-12-04T05:14:19.142Z,71.67
2022-12-04T05:16:47.522Z,56.23
2022-12-04T05:19:33.575Z,55.33
2022-12-04T05:22:03.310Z,56.13
2022-12-04T05:24:31.949Z,39.50
2022-12-04T05:27:00.352Z,43.53
2022-12-04T05:29:34.270Z,64.77
2022-12-04T05:32:04.219Z,47.27
2022-12-04T05:34:32.646Z,53.30
2022-12-04T05:37:03.559Z,45.27
2022-12-04T05:39:32.028Z,42.23
2022-12-04T05:42:00.393Z,69.43
2022-12-04T05:44:28.898Z,67.10
2022-12-04T05:46:57.404Z,36.80
2022-12-04T05:49:26.000Z,44.27
2022-12-04T05:51:57.090Z,61.67
2022-12-04T05:54:28.070Z,57.53
2022-12-04T05:56:56.528Z,46.40
2022-12-04T05:59:25.268Z,41.03
2022-12-04T06:01:54.691Z,57.30
2022-12-04T06:04:23.297Z,43.73
2022-12-04T06:06:51.734Z,57.23
2022-12-04T06:09:20.266Z,55.20
2022-12-04T06:11:50.294Z,79.20
2022-12-04T06:14:18.750Z,58.40
2022-12-04T06:16:48.318Z,74.13
2022-12-04T06:19:17.431Z,74.73
2022-12-04T06:21:47.058Z,98.33
2022-12-04T06:24:16.379Z,65.00
2022-12-04T06:27:11.059Z,77.30
2022-12-04T06:29:35.048Z,79.97
2022-12-04T06:32:03.478Z,63.47
2022-12-04T06:34:32.462Z,74.57
2022-12-04T06:37:00.890Z,72.03
2022-12-04T06:39:29.400Z,77.23
2022-12-04T06:41:57.802Z,73.87
2022-12-04T06:44:26.359Z,65.90
2022-12-04T06:46:56.192Z,70.87
2022-12-04T06:49:26.140Z,62.27
2022-12-04T06:51:54.564Z,83.57
2022-12-04T06:54:23.021Z,54.03
2022-12-04T06:56:51.671Z,72.00
2022-12-04T06:59:20.119Z,76.93
2022-12-04T07:01:48.596Z,95.07
2022-12-04T07:04:18.459Z,75.53
2022-12-04T07:06:46.829Z,67.20
2022-12-04T07:09:16.372Z,84.73
2022-12-04T07:11:45.296Z,79.37
2022-12-04T07:14:15.008Z,70.83
2022-12-04T07:16:43.910Z,65.87
2022-12-04T07:19:14.211Z,76.83
2022-12-04T07:21:45.378Z,74.73
2022-12-04T07:24:16.480Z,67.07
2022-12-04T07:26:45.259Z,88.23
2022-12-04T07:29:13.950Z,95.23
2022-12-04T07:31:44.289Z,87.17
2022-12-04T07:34:12.855Z,89.87
2022-12-04T07:36:41.667Z,84.40
2022-12-04T07:39:11.470Z,73.13
2022-12-04T07:41:39.926Z,66.87
2022-12-04T07:44:09.950Z,75.13
2022-12-04T07:46:38.335Z,85.67
2022-12-04T07:49:06.752Z,79.60
2022-12-04T07:51:35.177Z,92.87
2022-12-04T07:54:04.576Z,107.87
2022-12-04T07:56:34.792Z,123.47
2022-12-04T07:59:03.439Z,104.37
2022-12-04T08:01:32.105Z,74.53
2022-12-04T08:04:01.396Z,105.23
2022-12-04T08:06:30.919Z,92.03
2022-12-04T08:09:02.403Z,102.07
2022-12-04T08:11:34.840Z,84.13
2022-12-04T08:14:04.156Z,90.50
2022-12-04T08:16:33.720Z,89.73
2022-12-04T08:19:03.227Z,89.57
2022-12-04T08:21:32.379Z,97.00
2022-12-04T08:24:01.770Z,178.17
2022-12-04T08:26:31.311Z,102.13
2022-12-04T08:29:02.362Z,74.40
2022-12-04T08:31:32.693Z,67.97
2022-12-04T08:34:02.724Z,85.10
2022-12-04T08:36:31.437Z,115.53
2022-12-04T08:39:00.380Z,103.60
2022-12-04T08:41:29.120Z,107.57
2022-12-04T08:43:58.040Z,139.23
2022-12-04T08:46:30.563Z,96.63
2022-12-04T08:49:01.826Z,105.03
2022-12-04T08:51:31.528Z,77.33
2022-12-04T08:54:00.978Z,85.57
2022-12-04T08:56:31.092Z,120.27
2022-12-04T08:58:59.831Z,121.73
2022-12-04T09:01:30.264Z,78.07
2022-12-04T09:03:59.103Z,81.70
2022-12-04T09:06:28.852Z,91.73
2022-12-04T09:08:57.861Z,96.67
2022-12-04T09:11:27.599Z,79.13
2022-12-04T09:13:57.308Z,71.50
2022-12-04T09:16:26.538Z,58.23
2022-12-04T09:18:57.492Z,73.30
2022-12-04T09:21:26.643Z,97.33
2022-12-04T09:23:55.085Z,63.93
2022-12-04T09:26:25.677Z,62.53
2022-12-04T09:28:54.702Z,91.10
2022-12-04T09:31:23.889Z,72.00
2022-12-04T09:33:52.561Z,82.23
2022-12-04T09:36:22.823Z,82.13
2022-12-04T09:38:51.743Z,79.50
2022-12-04T09:41:27.699Z,95.80
2022-12-04T09:43:59.198Z,102.03
2022-12-04T09:46:30.695Z,80.93
2022-12-04T09:49:00.405Z,85.10
2022-12-04T09:51:30.817Z,83.57
2022-12-04T09:54:01.126Z,78.30
2022-12-04T09:56:30.794Z,84.57
2022-12-04T09:59:01.898Z,123.07
2022-12-04T10:01:34.004Z,130.03
2022-12-04T10:04:06.000Z,122.23
2022-12-04T10:06:40.875Z,73.40
2022-12-04T10:09:13.148Z,66.67
2022-12-04T10:11:48.073Z,76.13
2022-12-04T10:14:23.675Z,71.57
2022-12-04T10:17:04.119Z,54.97
2022-12-04T10:19:35.352Z,68.53
2022-12-04T10:22:12.745Z,64.47
2022-12-04T10:24:43.948Z,61.03
2022-12-04T10:27:16.546Z,76.93
2022-12-04T10:29:48.831Z,70.97
2022-12-04T10:32:19.426Z,51.73
2022-12-04T10:34:48.671Z,55.77
2022-12-04T10:37:18.652Z,68.03
2022-12-04T10:39:51.411Z,60.80
2022-12-04T10:42:25.248Z,83.20
2022-12-04T10:44:53.681Z,83.83
2022-12-04T10:47:23.967Z,81.20
2022-12-04T10:49:54.987Z,60.90
2022-12-04T10:52:24.912Z,67.80
2022-12-04T10:54:55.771Z,57.17
2022-12-04T10:57:24.228Z,85.87
2022-12-04T10:59:53.819Z,61.00
2022-12-04T11:02:23.995Z,85.00
2022-12-04T11:04:53.911Z,79.03
2022-12-04T11:07:22.990Z,52.60
2022-12-04T11:09:58.197Z,59.27
2022-12-04T11:12:26.929Z,58.67
2022-12-04T11:15:02.463Z,63.47
2022-12-04T11:17:30.946Z,67.73
2022-12-04T11:20:02.798Z,62.07
2022-12-04T11:22:31.357Z,55.20
2022-12-04T11:25:01.540Z,55.40
2022-12-04T11:27:32.651Z,85.07
2022-12-04T11:30:02.906Z,78.97
2022-12-04T11:32:32.697Z,62.40
2022-12-04T11:35:02.825Z,78.93
2022-12-04T11:37:33.730Z,69.70
2022-12-04T11:40:05.060Z,60.13
2022-12-04T11:42:33.754Z,58.93
2022-12-04T11:45:03.268Z,48.60
2022-12-04T11:47:33.234Z,55.97
2022-12-04T11:50:04.193Z,51.87
2022-12-04T11:52:40.280Z,55.10
2022-12-04T11:55:15.005Z,53.60
2022-12-04T11:57:46.339Z,72.77
2022-12-04T12:00:16.934Z,69.33
2022-12-04T12:02:54.282Z,69.73
2022-12-04T12:05:36.896Z,84.80
2022-12-04T12:08:11.284Z,88.50
2022-12-04T12:10:45.435Z,107.03
2022-12-04T12:13:17.220Z,68.50
2022-12-04T12:15:49.936Z,84.53
2022-12-04T12:18:27.792Z,66.40
2022-12-04T12:21:00.852Z,67.57
2022-12-04T12:23:36.563Z,67.40
2022-12-04T12:26:10.662Z,63.57
2022-12-04T12:28:57.429Z,104.20
2022-12-04T12:31:40.595Z,68.13
2022-12-04T12:34:11.338Z,79.53
2022-12-04T12:36:43.843Z,79.23
2022-12-04T12:39:14.478Z,79.73
2022-12-04T12:41:46.979Z,99.17
2022-12-04T12:44:18.050Z,63.30
2022-12-04T12:46:51.419Z,81.60
2022-12-04T12:49:22.439Z,79.33
2022-12-04T12:51:54.345Z,73.03
2022-12-04T12:54:29.922Z,52.17
2022-12-04T12:57:04.421Z,83.53
2022-12-04T12:59:33.954Z,54.13
2022-12-04T13:02:10.639Z,81.97
2022-12-04T13:04:40.574Z,58.50
2022-12-04T13:07:16.634Z,61.30
2022-12-04T13:09:48.898Z,61.57
2022-12-04T13:12:20.161Z,59.53
2022-12-04T13:14:49.335Z,58.90
2022-12-04T13:17:19.705Z,49.00
2022-12-04T13:19:49.768Z,93.73
2022-12-04T13:22:20.302Z,46.63
2022-12-04T13:25:06.723Z,59.67
2022-12-04T13:27:42.607Z,54.87
2022-12-04T13:30:14.487Z,50.27
2022-12-04T13:32:55.664Z,62.20
2022-12-04T13:35:29.984Z,56.20
2022-12-04T13:38:04.618Z,72.50
2022-12-04T13:40:35.125Z,51.83
2022-12-04T13:43:22.029Z,67.77
2022-12-04T13:45:53.254Z,70.10
2022-12-04T13:48:28.995Z,77.57
2022-12-04T13:51:03.540Z,63.00
2022-12-04T13:53:33.142Z,67.83
2022-12-04T13:56:07.345Z,56.43
2022-12-04T13:58:38.003Z,62.17
2022-12-04T14:01:13.237Z,54.10
2022-12-04T14:03:48.208Z,57.67
2022-12-04T14:06:23.733Z,87.87
2022-12-04T14:08:56.718Z,83.10
2022-12-04T14:11:25.570Z,68.10
2022-12-04T14:13:54.945Z,62.23
2022-12-04T14:16:26.817Z,58.57
2022-12-04T14:18:56.841Z,50.27
2022-12-04T14:21:25.675Z,63.43
2022-12-04T14:23:54.945Z,58.03
2022-12-04T14:26:37.344Z,56.27
2022-12-04T14:29:30.897Z,71.87
2022-12-04T14:32:02.943Z,59.10
2022-12-04T14:34:32.912Z,56.87
2022-12-04T14:37:02.077Z,67.03
2022-12-04T14:39:31.827Z,52.27
2022-12-04T14:42:07.191Z,50.47
2022-12-04T14:44:35.765Z,45.33
2022-12-04T14:47:15.050Z,46.77
2022-12-04T14:49:49.206Z,45.67
2022-12-04T14:52:26.003Z,37.70
2022-12-04T14:55:00.333Z,44.70
2022-12-04T14:57:39.033Z,41.03
2022-12-04T15:00:16.478Z,39.93
2022-12-04T15:02:47.622Z,37.03
2022-12-04T15:05:20.653Z,43.60
2022-12-04T15:07:50.674Z,41.07
2022-12-04T15:10:38.899Z,40.27
2022-12-04T15:13:07.463Z,44.60
2022-12-04T15:15:35.951Z,47.87
2022-12-04T15:18:06.870Z,43.33
2022-12-04T15:20:44.895Z,42.83
2022-12-04T15:23:15.056Z,38.17
2022-12-04T15:25:46.378Z,38.27
2022-12-04T15:28:15.975Z,44.40
2022-12-04T15:30:45.718Z,38.47
2022-12-04T15:33:21.182Z,40.37
2022-12-04T15:35:52.930Z,34.27
2022-12-04T15:38:21.622Z,39.90
2022-12-04T15:40:54.584Z,46.60
2022-12-04T15:43:27.836Z,37.17
2022-12-04T15:45:56.707Z,35.33
2022-12-04T15:48:30.324Z,33.50
2022-12-04T15:50:59.879Z,35.03
2022-12-04T15:53:29.847Z,41.97
2022-12-04T15:56:00.484Z,36.70
2022-12-04T15:58:30.291Z,40.00
2022-12-04T16:01:00.203Z,37.77
2022-12-04T16:03:31.911Z,40.00
2022-12-04T16:06:04.499Z,38.37
2022-12-04T16:08:34.004Z,33.47
2022-12-04T16:11:03.602Z,45.97
2022-12-04T16:13:33.970Z,46.60
2022-12-04T16:16:03.598Z,54.53
2022-12-04T16:18:33.555Z,40.00
2022-12-04T16:21:02.474Z,41.53
2022-12-04T16:23:30.950Z,41.57
2022-12-04T16:25:59.421Z,43.57
2022-12-04T16:28:27.872Z,32.80
2022-12-04T16:30:56.412Z,43.30
2022-12-04T16:33:24.832Z,39.90
2022-12-04T16:35:54.627Z,41.30
2022-12-04T16:38:23.102Z,42.17
2022-12-04T16:40:51.497Z,34.30
2022-12-04T16:43:20.047Z,34.27
2022-12-04T16:45:49.445Z,43.07
2022-12-04T16:48:17.791Z,36.87
2022-12-04T16:50:46.629Z,38.40
2022-12-04T16:53:17.811Z,39.73
2022-12-04T16:55:46.887Z,43.97
2022-12-04T16:58:15.687Z,42.47
2022-12-04T17:00:44.804Z,47.30
2022-12-04T17:03:18.659Z,45.80
2022-12-04T17:05:47.195Z,42.07
2022-12-04T17:08:17.144Z,47.87
2022-12-04T17:10:47.987Z,52.27
2022-12-04T17:13:18.665Z,52.87
2022-12-04T17:15:47.360Z,49.03
2022-12-04T17:18:20.780Z,48.67
2022-12-04T17:20:49.849Z,52.40
2022-12-04T17:23:19.728Z,54.73
2022-12-04T17:25:48.204Z,58.07
2022-12-04T17:28:16.709Z,50.17
2022-12-04T17:30:46.836Z,55.17
2022-12-04T17:33:15.414Z,53.03
2022-12-04T17:35:44.741Z,50.77
2022-12-04T17:38:13.595Z,46.23
2022-12-04T17:40:43.597Z,53.83
2022-12-04T17:43:12.036Z,66.63
2022-12-04T17:45:42.138Z,55.20
2022-12-04T17:48:10.621Z,77.67
2022-12-04T17:50:39.082Z,54.97
2022-12-04T17:53:07.829Z,71.70
2022-12-04T17:55:36.585Z,53.47
2022-12-04T17:58:06.411Z,61.57
2022-12-04T18:00:34.880Z,64.57
2022-12-04T18:03:03.422Z,52.73
2022-12-04T18:05:32.234Z,58.47
2022-12-04T18:08:00.658Z,78.07
2022-12-04T18:10:29.922Z,57.87
2022-12-04T18:12:58.342Z,63.13
2022-12-04T18:15:28.197Z,51.07
2022-12-04T18:17:57.898Z,55.13
2022-12-04T18:20:26.411Z,59.47
2022-12-04T18:22:54.975Z,48.50
2022-12-04T18:25:23.461Z,50.67
2022-12-04T18:27:53.204Z,51.20
2022-12-04T18:30:21.824Z,59.37
2022-12-04T18:32:52.499Z,61.80
2022-12-04T18:35:20.913Z,118.03
2022-12-04T18:37:49.401Z,69.67
2022-12-04T18:40:18.161Z,51.17
2022-12-04T18:42:46.603Z,59.67
2022-12-04T18:45:15.072Z,62.97
2022-12-04T18:47:43.557Z,60.37
2022-12-04T18:50:13.819Z,59.63
2022-12-04T18:52:42.449Z,67.23
2022-12-04T18:55:11.495Z,50.53
2022-12-04T18:57:40.375Z,59.83
2022-12-04T19:00:09.565Z,66.57
2022-12-04T19:02:38.329Z,51.90
2022-12-04T19:05:07.530Z,63.17
2022-12-04T19:07:37.801Z,64.27
2022-12-04T19:10:21.207Z,68.70
2022-12-04T19:12:51.098Z,61.57
2022-12-04T19:15:19.757Z,60.10
2022-12-04T19:17:48.520Z,79.57
2022-12-04T19:20:18.265Z,72.53
2022-12-04T19:22:48.339Z,54.73
2022-12-04T19:25:17.182Z,50.87
2022-12-04T19:27:45.601Z,53.87
2022-12-04T19:30:14.525Z,56.37
2022-12-04T19:32:43.044Z,68.77
2022-12-04T19:35:11.647Z,51.53
2022-12-04T19:37:42.183Z,48.40
2022-12-04T19:40:13.876Z,54.77
2022-12-04T19:42:42.493Z,55.60
2022-12-04T19:45:11.682Z,46.37
2022-12-04T19:47:42.643Z,51.03
2022-12-04T19:50:13.720Z,44.50
2022-12-04T19:52:42.178Z,42.47
2022-12-04T19:55:13.534Z,45.97
2022-12-04T19:57:43.378Z,34.27
2022-12-04T20:00:12.377Z,44.37
2022-12-04T20:02:45.127Z,43.03
2022-12-04T20:05:13.870Z,39.20
2022-12-04T20:07:42.325Z,35.60
2022-12-04T20:10:12.591Z,36.03
2022-12-04T20:12:42.775Z,38.30
2022-12-04T20:15:11.678Z,36.67
2022-12-04T20:17:40.214Z,33.33
2022-12-04T20:20:09.754Z,33.03
2022-12-04T20:22:43.592Z,33.00
2022-12-04T20:25:12.230Z,35.83
2022-12-04T20:27:40.681Z,31.57
2022-12-04T20:30:12.667Z,34.60
2022-12-04T20:32:41.395Z,31.90
2022-12-04T20:35:10.680Z,30.43
2022-12-04T20:37:39.272Z,27.37
2022-12-04T20:40:08.641Z,31.43
2022-12-04T20:42:37.645Z,28.97
2022-12-04T20:45:06.725Z,30.03
2022-12-04T20:47:37.361Z,32.80
2022-12-04T20:50:06.126Z,33.07
2022-12-04T20:52:34.626Z,35.37
2022-12-04T20:55:03.802Z,33.07
2022-12-04T20:57:32.969Z,32.33
2022-12-04T21:00:01.636Z,35.87
2022-12-04T21:02:32.823Z,33.67
2022-12-04T21:05:02.675Z,35.47
2022-12-04T21:07:31.133Z,31.93
2022-12-04T21:10:00.118Z,34.27
2022-12-04T21:12:46.313Z,32.63
2022-12-04T21:15:32.176Z,29.27
2022-12-04T21:18:02.281Z,27.93
2022-12-04T21:20:32.437Z,27.40
2022-12-04T21:23:00.917Z,31.57
2022-12-04T21:25:29.380Z,28.67
2022-12-04T21:27:57.915Z,32.80
2022-12-04T21:30:27.741Z,28.70
2022-12-04T21:32:56.257Z,33.53
2022-12-04T21:35:24.774Z,31.03
2022-12-04T21:37:54.553Z,31.47
2022-12-04T21:40:23.032Z,30.30
2022-12-04T21:42:51.489Z,35.50
2022-12-04T21:45:19.946Z,40.03
2022-12-04T21:47:51.520Z,33.60
2022-12-04T21:50:20.413Z,30.97
2022-12-04T21:52:48.881Z,34.03
2022-12-04T21:55:18.794Z,31.03
2022-12-04T21:57:47.228Z,31.17
2022-12-04T22:00:16.120Z,35.80
2022-12-04T22:02:44.836Z,34.73
2022-12-04T22:05:13.422Z,32.80
2022-12-04T22:07:42.094Z,33.83
2022-12-04T22:10:11.255Z,27.77
2022-12-04T22:12:49.498Z,32.63
2022-12-04T22:15:20.130Z,34.33
2022-12-04T22:17:48.543Z,33.07
2022-12-04T22:20:17.072Z,32.07
2022-12-04T22:22:45.790Z,29.63
2022-12-04T22:25:15.750Z,31.80
2022-12-04T22:27:45.689Z,32.90
2022-12-04T22:30:14.912Z,34.57
2022-12-04T22:32:43.602Z,28.73
2022-12-04T22:35:13.056Z,33.17
2022-12-04T22:37:44.531Z,31.07
2022-12-04T22:40:13.778Z,27.23
2022-12-04T22:42:42.331Z,27.50
2022-12-04T22:45:12.844Z,31.33
2022-12-04T22:47:41.314Z,27.07
2022-12-04T22:50:10.355Z,28.43
2022-12-04T22:52:38.788Z,29.10
2022-12-04T22:55:07.833Z,24.50
2022-12-04T22:57:36.660Z,26.33
2022-12-04T23:00:06.197Z,29.13
2022-12-04T23:02:36.056Z,32.27
2022-12-04T23:05:04.728Z,28.77
2022-12-04T23:07:33.306Z,35.60
2022-12-04T23:10:01.755Z,35.03
2022-12-04T23:12:30.202Z,31.80
2022-12-04T23:14:58.681Z,25.87
2022-12-04T23:17:27.142Z,23.47
2022-12-04T23:19:57.185Z,25.50
2022-12-04T23:22:25.957Z,26.13
2022-12-04T23:24:54.586Z,28.07
2022-12-04T23:27:22.987Z,31.67
2022-12-04T23:29:53.922Z,28.17
2022-12-04T23:32:22.502Z,21.90
2022-12-04T23:34:53.022Z,26.83
2022-12-04T23:37:23.052Z,31.17
2022-12-04T23:39:51.484Z,35.33
2022-12-04T23:42:19.872Z,29.33
2022-12-04T23:44:48.297Z,33.20
2022-12-04T23:47:16.885Z,35.63
2022-12-04T23:49:45.396Z,33.37
2022-12-04T23:52:13.784Z,33.63
2022-12-04T23:54:43.649Z,35.10
2022-12-04T23:57:12.040Z,33.93
2022-12-04T23:59:40.476Z,31.70
